West Bend, WI

8:39 PM CDT on March 30, 2017 (GMT -0500)
West Bend Municipal

Weather History for KETB - December, 2013

Change the Weather History Date:

Tuesday, December 17, 2013

  Actual Average Record
Temperature  
Mean Temperature 23 °F -  
Max Temperature 32 °F 29 °F 50 °F (1939)
Min Temperature 14 °F 15 °F -13 °F (1972)
Degree Days  
Heating Degree Days 42    
Moisture  
Dew Point 17 °F    
Average Humidity 77    
Maximum Humidity 93    
Minimum Humidity 60    
Precipitation  
Precipitation 0.00 in - - ()
Sea Level Pressure  
Sea Level Pressure 29.90 in    
Wind  
Wind Speed 11 mph (West)    
Max Wind Speed 17 mph    
Max Gust Speed 26 mph    
Visibility 8 miles    
Events Snow    
Averages and records for this station are not official NWS values.
T = Trace of Precipitation, MM = Missing Value Source: NWS Daily Summary

Daily Weather History Graph

Daily Weather History Graph

Search for Another Location

Airport or City:

Trip Planner

Search our weather history database for the weather conditions in past years. The results will help you decide how hot, cold, wet, or windy it might be!

Date:

Astronomy

Dec. 17, 2013 Rise Set
Actual Time 7:19 AM CST 4:17 PM CST
Civil Twilight 6:47 AM CST 4:50 PM CST
Nautical Twilight 6:11 AM CST 5:26 PM CST
Astronomical Twilight 5:36 AM CST 6:01 PM CST
Moon 4:59 PM CST (12/17) 7:14 AM CST (12/17)
Length of Visible Light 10h 03m
Length of Day
8h 57m
Full, 100% of the Moon is Illuminated
Dec 17
Full
Dec 25
Last Quarter
Jan 1
New
Jan 7
First Quarter
Jan 15
Full

Hourly Weather History & Observations

Time (CST) Temp. Windchill Dew Point Humidity Pressure Visibility Wind Dir Wind Speed Gust Speed Precip Events Conditions
12:15 AM 14.0 °F 1.2 °F 10.4 °F 86% 29.94 in 10.0 mi WSW 10.4 mph - N/A   Overcast
12:35 AM 14.0 °F -0.8 °F 10.4 °F 86% 29.94 in 7.0 mi West 13.8 mph 17.3 mph N/A   Overcast
12:55 AM 14.0 °F -0.2 °F 10.4 °F 86% 29.95 in 7.0 mi West 12.7 mph 16.1 mph N/A Snow Light Snow
1:15 AM 14.0 °F 1.2 °F 10.4 °F 86% 29.95 in 4.0 mi West 10.4 mph - N/A Snow Light Snow
1:35 AM 14.0 °F -2.0 °F 10.4 °F 86% 29.96 in 2.5 mi West 16.1 mph 19.6 mph N/A Snow Light Snow
1:55 AM 14.0 °F -2.5 °F 10.4 °F 86% 29.96 in 2.5 mi West 17.3 mph 23.0 mph N/A Snow Light Snow
2:15 AM 14.0 °F 2.0 °F 10.4 °F 86% 29.95 in 4.0 mi WSW 9.2 mph - N/A Snow Light Snow
2:35 AM 14.0 °F 1.2 °F 10.4 °F 86% 29.93 in 3.0 mi WSW 10.4 mph - N/A Snow Light Snow
2:55 AM 14.0 °F -0.8 °F 10.4 °F 86% 29.94 in 4.0 mi WSW 13.8 mph 17.3 mph N/A Snow Light Snow
3:15 AM 14.0 °F 2.0 °F 10.4 °F 86% 29.92 in 4.0 mi SW 9.2 mph - N/A Snow Light Snow
3:35 AM 14.0 °F 2.0 °F 10.4 °F 86% 29.90 in 4.0 mi SW 9.2 mph - N/A Snow Light Snow
3:55 AM 14.0 °F 2.0 °F 12.2 °F 93% 29.89 in 5.0 mi SW 9.2 mph - N/A Snow Light Snow
4:15 AM 14.0 °F 3.9 °F 12.2 °F 93% 29.89 in 5.0 mi SW 6.9 mph - N/A   Overcast
4:35 AM 15.8 °F 4.2 °F 12.2 °F 86% 29.88 in 5.0 mi SW 9.2 mph - N/A   Overcast
4:55 AM 15.8 °F 5.1 °F 12.2 °F 86% 29.88 in 5.0 mi SW 8.1 mph - N/A   Overcast
5:15 AM 17.6 °F 6.4 °F 14.0 °F 86% 29.87 in 7.0 mi SSW 9.2 mph - N/A   Overcast
5:35 AM 17.6 °F 8.2 °F 14.0 °F 86% 29.86 in 3.0 mi SW 6.9 mph - N/A Snow Light Snow
5:55 AM 19.4 °F 7.9 °F 15.8 °F 86% 29.86 in 1.2 mi SW 10.4 mph - N/A Snow Light Snow
6:15 AM 19.4 °F 6.6 °F 15.8 °F 86% 29.85 in 3.0 mi WSW 12.7 mph 16.1 mph N/A Snow Light Snow
6:35 AM 21.2 °F 10.9 °F 15.8 °F 80% 29.84 in 7.0 mi WSW 9.2 mph - N/A   Overcast
6:55 AM 21.2 °F 8.9 °F 17.6 °F 86% 29.84 in 7.0 mi WSW 12.7 mph 17.3 mph N/A   Overcast
7:15 AM 21.2 °F 8.9 °F 17.6 °F 86% 29.84 in 7.0 mi WSW 12.7 mph 19.6 mph N/A   Mostly Cloudy
7:35 AM 21.2 °F 9.5 °F 17.6 °F 86% 29.84 in 5.0 mi WSW 11.5 mph 16.1 mph N/A   Mostly Cloudy
7:55 AM 21.2 °F 10.1 °F 17.6 °F 86% 29.84 in 5.0 mi WSW 10.4 mph 17.3 mph N/A   Overcast
8:15 AM 23.0 °F 12.4 °F 17.6 °F 80% 29.84 in 5.0 mi WSW 10.4 mph - N/A Snow Light Snow
8:35 AM 23.0 °F 11.7 °F 19.4 °F 86% 29.84 in 7.0 mi WSW 11.5 mph - N/A   Overcast
8:55 AM 23.0 °F 11.1 °F 19.4 °F 86% 29.84 in 5.0 mi WSW 12.7 mph - N/A   Haze
9:15 AM 24.8 °F 12.9 °F 19.4 °F 80% 29.85 in 7.0 mi West 13.8 mph 19.6 mph N/A   Overcast
9:35 AM 26.6 °F 14.3 °F 21.2 °F 80% 29.85 in 7.0 mi West 16.1 mph 24.2 mph N/A   Overcast
9:55 AM 26.6 °F 14.3 °F 21.2 °F 80% 29.85 in 5.0 mi West 16.1 mph 21.9 mph N/A   Haze
10:35 AM 28.4 °F 16.2 °F 21.2 °F 74% 29.85 in 7.0 mi West 17.3 mph 24.2 mph N/A   Scattered Clouds
10:55 AM 30.2 °F 19.8 °F 21.2 °F 69% 29.85 in 10.0 mi West 13.8 mph - N/A   Scattered Clouds
11:15 AM 30.2 °F 19.8 °F 23.0 °F 75% 29.85 in 10.0 mi West 13.8 mph 26.5 mph N/A   Mostly Cloudy
11:35 AM 30.2 °F 20.2 °F 23.0 °F 75% 29.85 in 10.0 mi West 12.7 mph 20.7 mph N/A   Mostly Cloudy
11:55 AM 30.2 °F 19.8 °F 23.0 °F 75% 29.85 in 10.0 mi West 13.8 mph - N/A   Overcast
12:15 PM 30.2 °F 20.8 °F 23.0 °F 75% 29.85 in 10.0 mi West 11.5 mph 18.4 mph N/A   Overcast
12:35 PM 30.2 °F 21.9 °F 23.0 °F 75% 29.85 in 10.0 mi West 9.2 mph - N/A   Overcast
12:55 PM 30.2 °F 21.3 °F 23.0 °F 75% 29.85 in 10.0 mi West 10.4 mph 17.3 mph N/A   Overcast
1:15 PM 32.0 °F 23.0 °F 23.0 °F 69% 29.85 in 10.0 mi West 11.5 mph - N/A   Overcast
1:55 PM 32.0 °F 23.6 °F 21.2 °F 64% 29.85 in 10.0 mi WNW 10.4 mph - N/A   Mostly Cloudy
2:15 PM 32.0 °F 22.1 °F 21.2 °F 64% 29.85 in 10.0 mi West 13.8 mph 17.3 mph N/A   Scattered Clouds
2:35 PM 32.0 °F 23.6 °F 19.4 °F 60% 29.85 in 10.0 mi WNW 10.4 mph - N/A   Mostly Cloudy
2:55 PM 30.2 °F 19.3 °F 24.8 °F 80% 29.87 in 0.2 mi West 15.0 mph 25.3 mph N/A Snow Snow
3:15 PM 30.2 °F 22.6 °F 23.0 °F 75% 29.88 in 3.0 mi West 8.1 mph - N/A Snow Light Snow
3:35 PM 30.2 °F 22.6 °F 21.2 °F 69% 29.88 in 10.0 mi West 8.1 mph - N/A   Mostly Cloudy
3:55 PM 30.2 °F 25.4 °F 21.2 °F 69% 29.89 in 10.0 mi West 4.6 mph - N/A   Mostly Cloudy
4:15 PM 30.2 °F 24.3 °F 23.0 °F 75% 29.90 in 10.0 mi NW 5.8 mph - N/A Snow Light Snow
4:35 PM 30.2 °F 24.3 °F 23.0 °F 75% 29.90 in 10.0 mi WNW 5.8 mph - N/A Snow Light Snow
4:55 PM 28.4 °F 21.2 °F 21.2 °F 74% 29.91 in 10.0 mi West 6.9 mph - N/A   Mostly Cloudy
5:15 PM 28.4 °F 20.4 °F 19.4 °F 69% 29.92 in 10.0 mi West 8.1 mph - N/A   Mostly Cloudy
5:35 PM 28.4 °F 19.1 °F 19.4 °F 69% 29.93 in 10.0 mi West 10.4 mph - N/A   Overcast
5:55 PM 28.4 °F 19.7 °F 19.4 °F 69% 29.93 in 10.0 mi West 9.2 mph - N/A   Overcast
6:15 PM 28.4 °F 18.5 °F 17.6 °F 64% 29.94 in 10.0 mi West 11.5 mph - N/A   Overcast
6:35 PM 28.4 °F 18.0 °F 17.6 °F 64% 29.94 in 10.0 mi West 12.7 mph 19.6 mph N/A   Overcast
6:55 PM 28.4 °F 19.1 °F 17.6 °F 64% 29.95 in 10.0 mi West 10.4 mph - N/A   Overcast
7:15 PM 28.4 °F 19.1 °F 17.6 °F 64% 29.95 in 10.0 mi West 10.4 mph 17.3 mph N/A   Overcast
7:35 PM 28.4 °F 19.1 °F 19.4 °F 69% 29.95 in 10.0 mi West 10.4 mph - N/A   Overcast
7:55 PM 28.4 °F 19.7 °F 19.4 °F 69% 29.96 in 10.0 mi West 9.2 mph - N/A   Overcast
8:15 PM 28.4 °F 19.1 °F 17.6 °F 64% 29.96 in 10.0 mi West 10.4 mph 17.3 mph N/A   Overcast
8:35 PM 28.4 °F 20.4 °F 17.6 °F 64% 29.97 in 10.0 mi West 8.1 mph 17.3 mph N/A   Overcast
8:55 PM 26.6 °F 17.5 °F 17.6 °F 69% 29.97 in 10.0 mi West 9.2 mph 17.3 mph N/A   Overcast
9:15 PM 26.6 °F 18.2 °F 17.6 °F 69% 29.97 in 10.0 mi West 8.1 mph - N/A   Overcast
9:35 PM 26.6 °F 18.2 °F 17.6 °F 69% 29.97 in 10.0 mi West 8.1 mph - N/A   Overcast
9:55 PM 26.6 °F 17.5 °F 17.6 °F 69% 29.97 in 10.0 mi West 9.2 mph - N/A   Overcast
10:55 PM 26.6 °F 15.7 °F 17.6 °F 69% 30.00 in 10.0 mi West 12.7 mph 19.6 mph N/A   Overcast
11:15 PM 26.6 °F 14.3 °F 17.6 °F 69% 30.00 in 10.0 mi WNW 16.1 mph 23.0 mph N/A   Overcast
11:35 PM 24.8 °F 14.0 °F 14.0 °F 64% 30.00 in 10.0 mi WNW 11.5 mph 19.6 mph N/A Snow Light Snow
11:55 PM 23.0 °F 11.7 °F 14.0 °F 68% 30.01 in 10.0 mi WNW 11.5 mph 18.4 mph N/A   Overcast